首页
METAR-TAF:

METAR-TAF

机场 :

卡托维兹, 波兰

纬度: 50-28-27N, 经度: 019-04-48E, 海拔: 284米

当前天气观测

该预报发布于16分钟前的04:30 UTC
风速9节,风向
温度 2°C
湿度 69%
气压 1012 hPa
能见度10公里或以上
1500米以下无云,无积雨云

METAR: EPKT 210430Z 18009KT CAVOK 02/M03 Q1012

时间: 05:46 (04:46 UTC)

预报

该预报发布于5小时和16分钟前的23:30 UTC
预报有效从21日的 00点(UTC)到 21日的 24点(UTC)
风速7节,风向
能见度10公里或以上
1500米以下无云,无积雨云
成为
从 21日的 05点(UTC)到 21日的 08点(UTC)
风速17节,风向西,有时为33节阵风
能見度: 3000
多云层高于600英尺
多云层高于1400英尺
雪, 雨
成为
从 21日的 12点(UTC)到 21日的 15点(UTC)
风速7节,风向西
能見度: 8000
多云层高于2000英尺
短暂存在
从 21日的 12点(UTC)到 21日的 17点(UTC)
能見度: 4000
多云层高于1300英尺, 积雨云.
阵雨

TAF: EPKT 202330Z 2100/2124 17007KT CAVOK BECMG 2105/2108 28017G33KT 3000 SNRA BKN006 BKN014 BECMG 2112/2115 28007KT 8000 NSW BKN020 TEMPO 2112/2117 4000 SHRA BKN013CB

超过4000个机场的气象观测和天气预报(METAR&TAF报告)。

可查询的气象台以黄色和红色小点在地图上表示。

将鼠标移到小点上方,可查看气象台名称。

然后点击查看天气观测和预报。

如需切换地图:点击带黑十字的绿色按钮放大地图;点击带横线的绿色按钮缩小地图;或者点击绿色箭头查看邻近地区的地图。


METAR-TAF: